DAL545 CYVR-KSEA
Flight info
| Callsign | DAL545 |
|---|---|
| Flight time | 0h 37m |
| Altitude | 15000 |
| Route | ROESH MARNR8 |
| Aircraft | A339/H-SADE1E2E3GHIJ3J5M1P2RWXY/LB2D1 |
Departure
| Time | 2026-05-05 02:45 |
|---|---|
| Airport | Vancouver International Airport (CYVR) |
Arrival
| Time | 2026-05-05 03:23 |
|---|---|
| Airport | Seattle–Tacoma International Airport (KSEA) |
| Time | Latitude | Longitude | Altitude | Speed | Heading |
|---|---|---|---|---|---|
| 2026-05-05 02:22 | 49.19825 | -123.17572 | 27 ft | 0 kts | 156° |
| 2026-05-05 02:28 | 49.19830 | -123.17576 | 27 ft | 2 kts | 156° |
| 2026-05-05 02:28 | 49.19845 | -123.17586 | 27 ft | 2 kts | 156° |
| 2026-05-05 02:28 | 49.19860 | -123.17596 | 26 ft | 2 kts | 157° |
| 2026-05-05 02:29 | 49.19876 | -123.17603 | 27 ft | 2 kts | 186° |
| 2026-05-05 02:29 | 49.19892 | -123.17597 | 26 ft | 2 kts | 217° |
| 2026-05-05 02:29 | 49.19903 | -123.17580 | 26 ft | 2 kts | 246° |
| 2026-05-05 02:29 | 49.19910 | -123.17557 | 25 ft | 2 kts | 248° |
| 2026-05-05 02:30 | 49.19913 | -123.17541 | 25 ft | 0 kts | 272° |
| 2026-05-05 02:32 | 49.19921 | -123.17618 | 25 ft | 17 kts | 280° |
| 2026-05-05 02:32 | 49.19942 | -123.17810 | 27 ft | 19 kts | 288° |
| 2026-05-05 02:33 | 49.19990 | -123.17987 | 27 ft | 19 kts | 281° |
| 2026-05-05 02:33 | 49.20015 | -123.18197 | 27 ft | 21 kts | 280° |
| 2026-05-05 02:33 | 49.20042 | -123.18428 | 27 ft | 20 kts | 279° |
| 2026-05-05 02:33 | 49.20004 | -123.18522 | 27 ft | 14 kts | 197° |
| 2026-05-05 02:34 | 49.19925 | -123.18543 | 27 ft | 18 kts | 190° |
| 2026-05-05 02:34 | 49.19753 | -123.18607 | 27 ft | 18 kts | 208° |
| 2026-05-05 02:34 | 49.19677 | -123.18675 | 27 ft | 20 kts | 202° |
| 2026-05-05 02:34 | 49.19486 | -123.18737 | 27 ft | 23 kts | 191° |
| 2026-05-05 02:35 | 49.19397 | -123.18708 | 27 ft | 18 kts | 158° |
| 2026-05-05 02:35 | 49.19268 | -123.18715 | 27 ft | 20 kts | 188° |
| 2026-05-05 02:35 | 49.19139 | -123.18666 | 27 ft | 21 kts | 141° |
| 2026-05-05 02:35 | 49.19015 | -123.18515 | 27 ft | 24 kts | 143° |
| 2026-05-05 02:36 | 49.18936 | -123.18292 | 27 ft | 26 kts | 98° |
| 2026-05-05 02:36 | 49.18902 | -123.18011 | 27 ft | 28 kts | 101° |
| 2026-05-05 02:36 | 49.18866 | -123.17706 | 27 ft | 30 kts | 100° |
| 2026-05-05 02:36 | 49.18828 | -123.17390 | 27 ft | 31 kts | 100° |
| 2026-05-05 02:37 | 49.18796 | -123.17058 | 27 ft | 31 kts | 101° |
| 2026-05-05 02:37 | 49.18759 | -123.16740 | 27 ft | 30 kts | 100° |
| 2026-05-05 02:37 | 49.18723 | -123.16432 | 27 ft | 28 kts | 100° |
| 2026-05-05 02:37 | 49.18667 | -123.16251 | 27 ft | 15 kts | 132° |
| 2026-05-05 02:38 | 49.18631 | -123.16119 | 27 ft | 13 kts | 102° |
| 2026-05-05 02:38 | 49.18605 | -123.16059 | 27 ft | 1 kts | 139° |
| 2026-05-05 02:38 | 49.18604 | -123.16057 | 27 ft | 0 kts | 139° |
| 2026-05-05 02:38 | 49.18597 | -123.16051 | 27 ft | 0 kts | 149° |
| 2026-05-05 02:39 | 49.18596 | -123.16050 | 27 ft | 1 kts | 150° |
| 2026-05-05 02:39 | 49.18595 | -123.16050 | 27 ft | 0 kts | 151° |
| 2026-05-05 02:44 | 49.18576 | -123.16043 | 27 ft | 12 kts | 169° |
| 2026-05-05 02:44 | 49.18482 | -123.16121 | 27 ft | 13 kts | 262° |
| 2026-05-05 02:44 | 49.18521 | -123.16503 | 27 ft | 72 kts | 279° |
| 2026-05-05 02:44 | 49.18647 | -123.17633 | 28 ft | 142 kts | 279° |
| 2026-05-05 02:45 | 49.18852 | -123.19432 | 101 ft | 196 kts | 279° |
| 2026-05-05 02:45 | 49.19132 | -123.21555 | 670 ft | 213 kts | 282° |
| 2026-05-05 02:45 | 49.19530 | -123.23779 | 1566 ft | 220 kts | 287° |
| 2026-05-05 02:45 | 49.20048 | -123.26019 | 2446 ft | 226 kts | 291° |
| 2026-05-05 02:46 | 49.20631 | -123.28274 | 3337 ft | 229 kts | 292° |
| 2026-05-05 02:46 | 49.21266 | -123.30520 | 4045 ft | 240 kts | 294° |
| 2026-05-05 02:46 | 49.21840 | -123.32994 | 4645 ft | 254 kts | 287° |
| 2026-05-05 02:46 | 49.22228 | -123.35695 | 5280 ft | 265 kts | 273° |
| 2026-05-05 02:47 | 49.21821 | -123.38446 | 6043 ft | 273 kts | 242° |
| 2026-05-05 02:47 | 49.20512 | -123.40567 | 6768 ft | 281 kts | 212° |
| 2026-05-05 02:47 | 49.18644 | -123.41490 | 7470 ft | 287 kts | 183° |
| 2026-05-05 02:47 | 49.16673 | -123.40979 | 8093 ft | 291 kts | 155° |
| 2026-05-05 02:48 | 49.15030 | -123.39217 | 8732 ft | 291 kts | 136° |
| 2026-05-05 02:48 | 49.13562 | -123.37072 | 9408 ft | 293 kts | 134° |
| 2026-05-05 02:48 | 49.12100 | -123.34874 | 10059 ft | 296 kts | 133° |
| 2026-05-05 02:48 | 49.10609 | -123.32612 | 10353 ft | 312 kts | 133° |
| 2026-05-05 02:49 | 49.08952 | -123.30289 | 10540 ft | 332 kts | 138° |
| 2026-05-05 02:49 | 49.07073 | -123.28150 | 10764 ft | 351 kts | 144° |
| 2026-05-05 02:49 | 49.04949 | -123.26133 | 11037 ft | 367 kts | 148° |
| 2026-05-05 02:49 | 49.02655 | -123.24241 | 11342 ft | 381 kts | 151° |
| 2026-05-05 02:50 | 49.00230 | -123.22447 | 11677 ft | 393 kts | 154° |
| 2026-05-05 02:50 | 48.97714 | -123.20741 | 12216 ft | 399 kts | 155° |
| 2026-05-05 02:50 | 48.95136 | -123.19102 | 12774 ft | 404 kts | 156° |
| 2026-05-05 02:50 | 48.92507 | -123.17509 | 13326 ft | 409 kts | 157° |
| 2026-05-05 02:51 | 48.89833 | -123.15951 | 13853 ft | 414 kts | 158° |
| 2026-05-05 02:51 | 48.87129 | -123.14423 | 14370 ft | 417 kts | 159° |
| 2026-05-05 02:51 | 48.84412 | -123.12924 | 14703 ft | 415 kts | 159° |
| 2026-05-05 02:51 | 48.81647 | -123.11426 | 14861 ft | 426 kts | 159° |
| 2026-05-05 02:52 | 48.78852 | -123.09933 | 14938 ft | 427 kts | 159° |
| 2026-05-05 02:52 | 48.76081 | -123.08471 | 14976 ft | 425 kts | 160° |
| 2026-05-05 02:52 | 48.73288 | -123.07014 | 14982 ft | 424 kts | 160° |
| 2026-05-05 02:52 | 48.70485 | -123.05564 | 14988 ft | 425 kts | 160° |
| 2026-05-05 02:53 | 48.67689 | -123.04133 | 14989 ft | 425 kts | 160° |
| 2026-05-05 02:53 | 48.64859 | -123.02713 | 14799 ft | 429 kts | 161° |
| 2026-05-05 02:53 | 48.61980 | -123.01558 | 14578 ft | 428 kts | 166° |
| 2026-05-05 02:53 | 48.59656 | -123.00770 | 14389 ft | 422 kts | 167° |
| 2026-05-05 02:54 | 48.57063 | -122.99952 | 14173 ft | 414 kts | 168° |
| 2026-05-05 02:54 | 48.54257 | -122.99106 | 13937 ft | 407 kts | 168° |
| 2026-05-05 02:54 | 48.51503 | -122.98299 | 13712 ft | 400 kts | 168° |
| 2026-05-05 02:54 | 48.48785 | -122.97516 | 13455 ft | 394 kts | 168° |
| 2026-05-05 02:55 | 48.46147 | -122.96765 | 13199 ft | 388 kts | 168° |
| 2026-05-05 02:55 | 48.43505 | -122.96018 | 12942 ft | 382 kts | 168° |
| 2026-05-05 02:55 | 48.40915 | -122.95290 | 12704 ft | 375 kts | 168° |
| 2026-05-05 02:55 | 48.38367 | -122.94574 | 12461 ft | 369 kts | 168° |
| 2026-05-05 02:56 | 48.35864 | -122.93872 | 12241 ft | 362 kts | 168° |
| 2026-05-05 02:56 | 48.33403 | -122.93182 | 12037 ft | 355 kts | 169° |
| 2026-05-05 02:56 | 48.30995 | -122.92507 | 11852 ft | 348 kts | 168° |
| 2026-05-05 02:56 | 48.28669 | -122.91855 | 11659 ft | 341 kts | 169° |
| 2026-05-05 02:57 | 48.26352 | -122.91208 | 11460 ft | 335 kts | 169° |
| 2026-05-05 02:57 | 48.24078 | -122.90572 | 11261 ft | 330 kts | 169° |
| 2026-05-05 02:57 | 48.21844 | -122.89948 | 11074 ft | 323 kts | 168° |
| 2026-05-05 02:57 | 48.19663 | -122.89339 | 10934 ft | 314 kts | 169° |
| 2026-05-05 02:58 | 48.17532 | -122.88745 | 10802 ft | 307 kts | 169° |
| 2026-05-05 02:58 | 48.15404 | -122.88150 | 10693 ft | 325 kts | 169° |
| 2026-05-05 02:58 | 48.13076 | -122.87499 | 10564 ft | 355 kts | 168° |
| 2026-05-05 02:58 | 48.10726 | -122.86396 | 10403 ft | 352 kts | 151° |
| 2026-05-05 02:59 | 48.08862 | -122.84145 | 10277 ft | 340 kts | 128° |
| 2026-05-05 02:59 | 48.07785 | -122.81113 | 10126 ft | 326 kts | 104° |
| 2026-05-05 02:59 | 48.07335 | -122.77888 | 9997 ft | 315 kts | 97° |
| 2026-05-05 02:59 | 48.06989 | -122.74702 | 9860 ft | 305 kts | 100° |
| 2026-05-05 03:00 | 48.06178 | -122.71813 | 9721 ft | 300 kts | 120° |
| 2026-05-05 03:00 | 48.05017 | -122.69257 | 9566 ft | 294 kts | 123° |
| 2026-05-05 03:00 | 48.03832 | -122.66781 | 9411 ft | 292 kts | 124° |
| 2026-05-05 03:00 | 48.02638 | -122.64313 | 9248 ft | 293 kts | 124° |
| 2026-05-05 03:01 | 48.01434 | -122.61848 | 9085 ft | 294 kts | 124° |
| 2026-05-05 03:01 | 48.00223 | -122.59386 | 8926 ft | 294 kts | 125° |
| 2026-05-05 03:01 | 47.99010 | -122.56928 | 8782 ft | 293 kts | 125° |
| 2026-05-05 03:01 | 47.97714 | -122.54590 | 8648 ft | 293 kts | 135° |
| 2026-05-05 03:02 | 47.96120 | -122.52688 | 8485 ft | 293 kts | 143° |
| 2026-05-05 03:02 | 47.94483 | -122.50965 | 8309 ft | 284 kts | 144° |
| 2026-05-05 03:02 | 47.92873 | -122.49307 | 8141 ft | 276 kts | 144° |
| 2026-05-05 03:02 | 47.91322 | -122.47728 | 7973 ft | 269 kts | 144° |
| 2026-05-05 03:03 | 47.89779 | -122.46171 | 7806 ft | 267 kts | 145° |
| 2026-05-05 03:03 | 47.88236 | -122.44621 | 7625 ft | 268 kts | 145° |
| 2026-05-05 03:03 | 47.86687 | -122.43067 | 7453 ft | 269 kts | 145° |
| 2026-05-05 03:03 | 47.85129 | -122.41505 | 7263 ft | 270 kts | 145° |
| 2026-05-05 03:04 | 47.83573 | -122.39942 | 7060 ft | 269 kts | 145° |
| 2026-05-05 03:04 | 47.82022 | -122.38389 | 6881 ft | 267 kts | 146° |
| 2026-05-05 03:04 | 47.80408 | -122.37021 | 6697 ft | 267 kts | 153° |
| 2026-05-05 03:04 | 47.78733 | -122.35849 | 6575 ft | 264 kts | 154° |
| 2026-05-05 03:05 | 47.77096 | -122.34553 | 6306 ft | 270 kts | 153° |
| 2026-05-05 03:05 | 47.75333 | -122.33547 | 5970 ft | 271 kts | 163° |
| 2026-05-05 03:05 | 47.73508 | -122.32880 | 5631 ft | 270 kts | 168° |
| 2026-05-05 03:05 | 47.71664 | -122.32402 | 5278 ft | 268 kts | 171° |
| 2026-05-05 03:06 | 47.69822 | -122.32019 | 4911 ft | 267 kts | 173° |
| 2026-05-05 03:06 | 47.68022 | -122.31702 | 4567 ft | 257 kts | 176° |
| 2026-05-05 03:06 | 47.66261 | -122.31628 | 4240 ft | 242 kts | 180° |
| 2026-05-05 03:06 | 47.64671 | -122.31629 | 3925 ft | 222 kts | 180° |
| 2026-05-05 03:07 | 47.63168 | -122.31636 | 3657 ft | 210 kts | 180° |
| 2026-05-05 03:07 | 47.61750 | -122.31653 | 3377 ft | 197 kts | 180° |
| 2026-05-05 03:07 | 47.60420 | -122.31671 | 3120 ft | 186 kts | 180° |
| 2026-05-05 03:07 | 47.59171 | -122.31686 | 2886 ft | 174 kts | 180° |
| 2026-05-05 03:08 | 47.57986 | -122.31698 | 2658 ft | 167 kts | 180° |
| 2026-05-05 03:08 | 47.56832 | -122.31706 | 2433 ft | 165 kts | 180° |
| 2026-05-05 03:08 | 47.55686 | -122.31712 | 2217 ft | 163 kts | 180° |
| 2026-05-05 03:08 | 47.54560 | -122.31714 | 2022 ft | 161 kts | 180° |
| 2026-05-05 03:09 | 47.53448 | -122.31719 | 1813 ft | 159 kts | 181° |
| 2026-05-05 03:09 | 47.52346 | -122.31734 | 1585 ft | 159 kts | 182° |
| 2026-05-05 03:09 | 47.51245 | -122.31747 | 1347 ft | 156 kts | 183° |
| 2026-05-05 03:09 | 47.50166 | -122.31760 | 1152 ft | 155 kts | 181° |
| 2026-05-05 03:10 | 47.49115 | -122.31758 | 1024 ft | 153 kts | 182° |
| 2026-05-05 03:10 | 47.48048 | -122.31767 | 952 ft | 156 kts | 183° |
| 2026-05-05 03:10 | 47.46959 | -122.31782 | 722 ft | 155 kts | 183° |
| 2026-05-05 03:10 | 47.45874 | -122.31816 | 999 ft | 163 kts | 184° |
| 2026-05-05 03:11 | 47.44774 | -122.31850 | 1431 ft | 149 kts | 183° |
| 2026-05-05 03:11 | 47.43675 | -122.31819 | 1606 ft | 168 kts | 188° |
| 2026-05-05 03:11 | 47.42524 | -122.32399 | 1968 ft | 185 kts | 206° |
| 2026-05-05 03:11 | 47.41322 | -122.33279 | 2495 ft | 197 kts | 206° |
| 2026-05-05 03:12 | 47.40072 | -122.34165 | 3123 ft | 205 kts | 205° |
| 2026-05-05 03:12 | 47.38825 | -122.35273 | 3560 ft | 208 kts | 226° |
| 2026-05-05 03:12 | 47.38176 | -122.37125 | 3812 ft | 212 kts | 259° |
| 2026-05-05 03:12 | 47.37939 | -122.39292 | 3922 ft | 217 kts | 263° |
| 2026-05-05 03:13 | 47.37735 | -122.41498 | 3970 ft | 217 kts | 264° |
| 2026-05-05 03:13 | 47.37541 | -122.43709 | 3984 ft | 217 kts | 264° |
| 2026-05-05 03:13 | 47.37523 | -122.45916 | 4009 ft | 215 kts | 286° |
| 2026-05-05 03:13 | 47.38294 | -122.47733 | 4019 ft | 212 kts | 324° |
| 2026-05-05 03:14 | 47.39650 | -122.48512 | 4027 ft | 212 kts | 351° |
| 2026-05-05 03:14 | 47.41111 | -122.48824 | 4018 ft | 212 kts | 353° |
| 2026-05-05 03:14 | 47.42567 | -122.49092 | 4012 ft | 210 kts | 354° |
| 2026-05-05 03:14 | 47.44019 | -122.49330 | 4009 ft | 211 kts | 355° |
| 2026-05-05 03:15 | 47.45475 | -122.49538 | 4005 ft | 209 kts | 355° |
| 2026-05-05 03:15 | 47.46930 | -122.49729 | 4006 ft | 210 kts | 355° |
| 2026-05-05 03:15 | 47.48371 | -122.49917 | 4010 ft | 210 kts | 355° |
| 2026-05-05 03:15 | 47.49826 | -122.50101 | 4008 ft | 209 kts | 355° |
| 2026-05-05 03:16 | 47.51273 | -122.50283 | 3966 ft | 209 kts | 355° |
| 2026-05-05 03:16 | 47.52728 | -122.50469 | 3983 ft | 210 kts | 355° |
| 2026-05-05 03:16 | 47.54181 | -122.50651 | 3980 ft | 209 kts | 355° |
| 2026-05-05 03:16 | 47.55634 | -122.50835 | 3984 ft | 215 kts | 355° |
| 2026-05-05 03:17 | 47.57160 | -122.51031 | 3982 ft | 221 kts | 355° |
| 2026-05-05 03:17 | 47.58673 | -122.50889 | 3981 ft | 218 kts | 20° |
| 2026-05-05 03:17 | 47.59871 | -122.49520 | 3897 ft | 224 kts | 56° |
| 2026-05-05 03:17 | 47.60354 | -122.47348 | 3709 ft | 225 kts | 81° |
| 2026-05-05 03:18 | 47.60534 | -122.45038 | 3432 ft | 227 kts | 83° |
| 2026-05-05 03:18 | 47.60696 | -122.42709 | 3294 ft | 225 kts | 84° |
| 2026-05-05 03:18 | 47.60641 | -122.40436 | 3236 ft | 220 kts | 105° |
| 2026-05-05 03:18 | 47.59968 | -122.38451 | 3020 ft | 209 kts | 125° |
| 2026-05-05 03:19 | 47.58056 | -122.35671 | 2544 ft | 176 kts | 140° |
| 2026-05-05 03:19 | 47.57142 | -122.34620 | 2411 ft | 162 kts | 144° |
| 2026-05-05 03:19 | 47.56200 | -122.33740 | 2330 ft | 160 kts | 150° |
| 2026-05-05 03:20 | 47.55205 | -122.32958 | 2113 ft | 163 kts | 155° |
| 2026-05-05 03:20 | 47.54176 | -122.32301 | 1858 ft | 159 kts | 161° |
| 2026-05-05 03:20 | 47.53140 | -122.31843 | 1690 ft | 156 kts | 168° |
| 2026-05-05 03:20 | 47.52070 | -122.31621 | 1442 ft | 155 kts | 180° |
| 2026-05-05 03:21 | 47.50992 | -122.31679 | 1155 ft | 153 kts | 186° |
| 2026-05-05 03:21 | 47.49943 | -122.31748 | 978 ft | 149 kts | 177° |
| 2026-05-05 03:21 | 47.49250 | -122.31753 | 869 ft | 151 kts | 183° |
| 2026-05-05 03:21 | 47.48197 | -122.31771 | 772 ft | 151 kts | 183° |
| 2026-05-05 03:22 | 47.47138 | -122.31768 | 584 ft | 152 kts | 184° |
| 2026-05-05 03:22 | 47.46085 | -122.31789 | 398 ft | 151 kts | 182° |
| 2026-05-05 03:22 | 47.45247 | -122.31805 | 386 ft | 79 kts | 180° |
| 2026-05-05 03:22 | 47.44750 | -122.31804 | 386 ft | 64 kts | 180° |
| 2026-05-05 03:23 | 47.44389 | -122.31789 | 386 ft | 44 kts | 166° |
| 2026-05-05 03:23 | 47.44141 | -122.31619 | 386 ft | 35 kts | 151° |
| 2026-05-05 03:23 | 47.43937 | -122.31447 | 386 ft | 33 kts | 149° |
| 2026-05-05 03:23 | 47.43812 | -122.31255 | 386 ft | 24 kts | 98° |
| 2026-05-05 03:24 | 47.43807 | -122.31012 | 386 ft | 22 kts | 90° |
| 2026-05-05 03:24 | 47.43807 | -122.30948 | 386 ft | 0 kts | 90° |
| 2026-05-05 03:25 | 47.43807 | -122.30882 | 386 ft | 13 kts | 90° |
| 2026-05-05 03:25 | 47.43806 | -122.30708 | 386 ft | 19 kts | 90° |
| 2026-05-05 03:25 | 47.43870 | -122.30631 | 386 ft | 14 kts | 4° |
| 2026-05-05 03:25 | 47.43976 | -122.30634 | 386 ft | 17 kts | 359° |
| 2026-05-05 03:26 | 47.44098 | -122.30637 | 386 ft | 18 kts | 359° |
| 2026-05-05 03:26 | 47.44231 | -122.30634 | 386 ft | 20 kts | 0° |
| 2026-05-05 03:26 | 47.44372 | -122.30633 | 386 ft | 21 kts | 0° |
| 2026-05-05 03:26 | 47.44523 | -122.30631 | 386 ft | 22 kts | 0° |
| 2026-05-05 03:27 | 47.44683 | -122.30629 | 386 ft | 23 kts | 0° |
| 2026-05-05 03:27 | 47.44771 | -122.30561 | 386 ft | 13 kts | 82° |
| 2026-05-05 03:27 | 47.44764 | -122.30421 | 386 ft | 12 kts | 99° |
| 2026-05-05 03:27 | 47.44726 | -122.30315 | 386 ft | 12 kts | 133° |
| 2026-05-05 03:28 | 47.44703 | -122.30245 | 386 ft | 8 kts | 108° |
| 2026-05-05 03:28 | 47.44686 | -122.30157 | 386 ft | 10 kts | 95° |
| 2026-05-05 03:28 | 47.44715 | -122.30050 | 386 ft | 12 kts | 65° |
| 2026-05-05 03:28 | 47.44773 | -122.29984 | 386 ft | 10 kts | 14° |
| 2026-05-05 03:29 | 47.44852 | -122.30002 | 386 ft | 12 kts | 342° |
| 2026-05-05 03:29 | 47.44864 | -122.30048 | 386 ft | 2 kts | 249° |
| 2026-05-05 03:29 | 47.44857 | -122.30070 | 386 ft | 4 kts | 245° |
| 2026-05-05 03:29 | 47.44854 | -122.30111 | 386 ft | 4 kts | 268° |
| 2026-05-05 03:30 | 47.44855 | -122.30125 | 386 ft | 2 kts | 276° |
| 2026-05-05 03:30 | 47.44866 | -122.30136 | 386 ft | 3 kts | 323° |
| 2026-05-05 03:30 | 47.44867 | -122.30137 | 386 ft | 0 kts | 321° |